createdAt,value
2018-09-04T00:09:11.275Z,22.6
2018-09-04T00:19:13.146Z,22.6
2018-09-04T00:29:14.479Z,22.6
2018-09-04T00:39:16.733Z,22.6
2018-09-04T00:49:18.975Z,22.6
2018-09-04T00:59:20.935Z,22.6
2018-09-04T01:09:23.083Z,22.6
2018-09-04T01:19:24.851Z,22.6
2018-09-04T01:29:27.114Z,22.6
2018-09-04T01:39:28.742Z,22.6
2018-09-04T01:49:30.473Z,22.6
2018-09-04T01:59:32.617Z,22.6
2018-09-04T02:09:34.601Z,22.6
2018-09-04T02:19:36.675Z,22.6
2018-09-04T02:29:38.575Z,22.6
2018-09-04T02:39:40.606Z,22.6
2018-09-04T02:49:42.521Z,22.6
2018-09-04T02:59:44.784Z,22.5
2018-09-04T03:09:46.800Z,22.5
2018-09-04T03:19:49.166Z,22.5
2018-09-04T03:29:50.482Z,22.5
2018-09-04T03:39:51.839Z,22.5
2018-09-04T03:49:53.577Z,22.5
2018-09-04T03:59:55.848Z,22.5
2018-09-04T04:09:57.743Z,22.5
2018-09-04T04:20:00.070Z,22.5
2018-09-04T04:30:02.076Z,22.5
2018-09-04T04:40:03.665Z,22.5
2018-09-04T04:50:05.376Z,22.5
2018-09-04T05:00:07.179Z,22.5
2018-09-04T05:10:09.472Z,22.5
2018-09-04T05:20:11.735Z,22.5
2018-09-04T05:30:13.488Z,22.5
2018-09-04T05:40:15.622Z,22.5
2018-09-04T05:50:17.675Z,22.5
2018-09-04T06:00:19.457Z,22.5
2018-09-04T06:10:21.059Z,22.5
2018-09-04T06:20:22.845Z,22.5
2018-09-04T06:30:24.806Z,22.5
2018-09-04T06:40:26.844Z,22.5
2018-09-04T06:50:28.892Z,22.5
2018-09-04T07:00:30.474Z,22.5
2018-09-04T07:10:32.638Z,22.5
2018-09-04T07:20:34.373Z,22.5
2018-09-04T07:30:36.019Z,22.5
2018-09-04T07:40:38.159Z,22.5
2018-09-04T07:50:40.835Z,22.5
2018-09-04T08:00:43.170Z,22.5
2018-09-04T08:10:45.123Z,22.5
2018-09-04T08:20:47.152Z,22.6
2018-09-04T08:30:48.512Z,22.6
2018-09-04T08:40:50.282Z,22.6
2018-09-04T08:50:52.367Z,22.6
2018-09-04T09:00:53.868Z,22.6
2018-09-04T09:10:58.004Z,22.6
2018-09-04T09:21:00.256Z,22.6
2018-09-04T09:31:02.180Z,22.6
2018-09-04T09:41:04.948Z,22.6
2018-09-04T09:51:06.695Z,22.6
2018-09-04T10:01:08.446Z,22.7
2018-09-04T10:11:10.238Z,22.7
2018-09-04T10:21:12.235Z,22.7
2018-09-04T10:31:14.293Z,22.7
2018-09-04T10:41:16.259Z,22.7
2018-09-04T10:51:17.978Z,22.7
2018-09-04T11:01:19.851Z,22.7
2018-09-04T11:11:21.791Z,22.7
2018-09-04T11:21:23.812Z,22.7
2018-09-04T11:31:25.930Z,22.7
2018-09-04T11:41:27.351Z,22.8
2018-09-04T11:51:29.182Z,22.8
2018-09-04T12:01:31.269Z,22.8
2018-09-04T12:11:33.037Z,22.8
2018-09-04T12:21:35.056Z,22.8
2018-09-04T12:31:37.053Z,22.8
2018-09-04T12:41:38.836Z,22.8
2018-09-04T12:51:41.272Z,22.8
2018-09-04T13:01:42.896Z,22.8
2018-09-04T13:11:47.371Z,22.8
2018-09-04T13:21:48.980Z,22.9
2018-09-04T13:31:51.009Z,22.9
2018-09-04T13:41:53.552Z,22.9
2018-09-04T13:51:56.115Z,22.9
2018-09-04T14:01:59.060Z,22.9
2018-09-04T14:12:01.975Z,22.9
2018-09-04T14:22:04.125Z,22.9
2018-09-04T14:32:05.840Z,22.9
2018-09-04T14:42:07.950Z,22.9
2018-09-04T14:52:09.565Z,23
2018-09-04T15:02:11.600Z,23
2018-09-04T15:12:13.445Z,23
2018-09-04T15:22:15.735Z,23
2018-09-04T15:32:17.877Z,23
2018-09-04T15:42:19.800Z,23
2018-09-04T15:52:21.875Z,23.1
2018-09-04T16:02:23.128Z,23.1
2018-09-04T16:12:25.020Z,23.1
2018-09-04T16:22:27.031Z,23.1
2018-09-04T16:32:28.872Z,23.1
2018-09-04T16:42:30.633Z,23.2
2018-09-04T16:52:32.549Z,23.2
2018-09-04T17:02:34.471Z,23.3
2018-09-04T17:12:36.499Z,23.4
2018-09-04T17:22:38.516Z,23.5
2018-09-04T17:32:40.646Z,23.5
2018-09-04T17:42:42.767Z,23.5
2018-09-04T17:52:44.609Z,23.6
2018-09-04T18:02:46.345Z,23.6
2018-09-04T18:12:48.026Z,23.6
2018-09-04T18:22:49.440Z,23.7
2018-09-04T18:32:51.748Z,23.7
2018-09-04T18:42:53.900Z,23.8
2018-09-04T18:52:56.564Z,23.7
2018-09-04T19:02:58.797Z,23.7
2018-09-04T19:13:01.325Z,23.7
2018-09-04T19:23:03.134Z,23.7
2018-09-04T19:33:04.703Z,23.7
2018-09-04T19:43:06.625Z,23.7
2018-09-04T19:53:08.410Z,23.7
2018-09-04T20:03:10.167Z,23.7
2018-09-04T20:13:12.294Z,23.6
2018-09-04T20:23:13.938Z,23.6
2018-09-04T20:33:15.920Z,23.6
2018-09-04T20:43:17.706Z,23.6
2018-09-04T20:53:20.006Z,23.5
2018-09-04T21:03:21.688Z,23.5
2018-09-04T21:13:23.918Z,23.5
2018-09-04T21:23:26.305Z,23.5
2018-09-04T21:33:28.037Z,23.4
2018-09-04T21:43:30.209Z,23.4
2018-09-04T21:53:31.580Z,23.4
2018-09-04T22:03:33.253Z,23.4
2018-09-04T22:13:35.109Z,23.4
2018-09-04T22:23:37.029Z,23.3
2018-09-04T22:33:38.767Z,23.3
2018-09-04T22:43:40.052Z,23.3
2018-09-04T22:53:41.977Z,23.3
2018-09-04T23:03:44.071Z,23.3
2018-09-04T23:13:46.240Z,23.3
2018-09-04T23:23:48.347Z,23.3
2018-09-04T23:33:50.014Z,23.2
2018-09-04T23:43:52.469Z,23.2
2018-09-04T23:53:54.881Z,23.2
